createdAt,value
2023-12-09T00:02:13.471Z,1.60
2023-12-09T00:04:41.172Z,1.80
2023-12-09T00:07:07.998Z,1.90
2023-12-09T00:09:34.735Z,2.00
2023-12-09T00:12:01.459Z,2.10
2023-12-09T00:14:28.517Z,1.80
2023-12-09T00:16:55.301Z,1.70
2023-12-09T00:19:22.050Z,1.90
2023-12-09T00:21:48.845Z,1.90
2023-12-09T00:24:15.559Z,2.00
2023-12-09T00:26:42.283Z,2.10
2023-12-09T00:29:08.966Z,2.00
2023-12-09T00:31:35.690Z,2.10
2023-12-09T00:34:02.592Z,2.10
2023-12-09T00:36:29.449Z,2.10
2023-12-09T00:38:56.391Z,2.20
2023-12-09T00:41:23.409Z,2.20
2023-12-09T00:43:50.124Z,2.20
2023-12-09T00:46:16.910Z,2.20
2023-12-09T00:48:43.714Z,2.20
2023-12-09T00:51:10.608Z,2.30
2023-12-09T00:53:37.292Z,2.00
2023-12-09T00:56:03.984Z,2.10
2023-12-09T00:58:30.885Z,2.20
2023-12-09T01:00:57.553Z,2.30
2023-12-09T01:03:24.264Z,2.30
2023-12-09T01:05:51.057Z,1.90
2023-12-09T01:08:17.746Z,1.80
2023-12-09T01:10:44.592Z,1.70
2023-12-09T01:13:11.266Z,1.60
2023-12-09T01:15:38.177Z,1.90
2023-12-09T01:18:04.923Z,1.80
2023-12-09T01:20:31.952Z,1.40
2023-12-09T01:22:58.798Z,1.40
2023-12-09T01:25:25.475Z,1.50
2023-12-09T01:27:52.177Z,1.70
2023-12-09T01:30:19.104Z,1.90
2023-12-09T01:32:45.966Z,2.10
2023-12-09T01:35:12.767Z,2.10
2023-12-09T01:37:39.442Z,2.10
2023-12-09T01:40:06.088Z,2.20
2023-12-09T01:42:32.800Z,2.30
2023-12-09T01:44:59.589Z,2.30
2023-12-09T01:47:26.328Z,2.20
2023-12-09T01:49:53.227Z,2.10
2023-12-09T01:52:19.950Z,1.90
2023-12-09T01:54:46.579Z,1.70
2023-12-09T01:57:13.293Z,1.70
2023-12-09T01:59:40.108Z,1.60
2023-12-09T02:02:06.967Z,1.60
2023-12-09T02:04:33.836Z,1.60
2023-12-09T02:07:00.622Z,1.60
2023-12-09T02:09:27.303Z,1.70
2023-12-09T02:11:54.142Z,1.70
2023-12-09T02:14:20.853Z,1.30
2023-12-09T02:16:47.675Z,1.40
2023-12-09T02:19:14.585Z,1.60
2023-12-09T02:21:41.281Z,1.60
2023-12-09T02:24:08.115Z,1.80
2023-12-09T02:26:34.873Z,1.90
2023-12-09T02:29:01.553Z,2.10
2023-12-09T02:31:28.317Z,2.20
2023-12-09T02:33:55.098Z,2.20
2023-12-09T02:36:21.801Z,2.10
2023-12-09T02:38:48.550Z,2.10
2023-12-09T02:41:15.293Z,1.90
2023-12-09T02:43:41.949Z,1.80
2023-12-09T02:46:08.579Z,2.10
2023-12-09T02:48:35.367Z,2.20
2023-12-09T02:51:02.488Z,2.00
2023-12-09T02:53:29.153Z,1.80
2023-12-09T02:55:56.050Z,1.60
2023-12-09T02:58:22.800Z,1.80
2023-12-09T03:00:49.489Z,2.00
2023-12-09T03:03:16.384Z,1.90
2023-12-09T03:05:43.076Z,2.00
2023-12-09T03:08:09.881Z,2.20
2023-12-09T03:10:36.556Z,2.10
2023-12-09T03:13:03.215Z,1.90
2023-12-09T03:15:30.162Z,1.60
2023-12-09T03:17:57.032Z,1.90
2023-12-09T03:20:23.724Z,1.60
2023-12-09T03:22:50.518Z,1.70
2023-12-09T03:25:17.198Z,1.70
2023-12-09T03:27:43.993Z,2.00
2023-12-09T03:30:10.659Z,2.10
2023-12-09T03:32:38.096Z,2.00
2023-12-09T03:35:04.938Z,1.90
2023-12-09T03:37:31.682Z,2.10
2023-12-09T03:39:58.378Z,2.20
2023-12-09T03:42:25.324Z,2.30
2023-12-09T03:44:52.219Z,2.30
2023-12-09T03:47:25.951Z,2.40
2023-12-09T03:49:56.227Z,2.30
2023-12-09T03:52:23.436Z,2.30
2023-12-09T03:54:50.101Z,2.30
2023-12-09T03:57:16.843Z,2.40
2023-12-09T03:59:43.582Z,2.40
2023-12-09T04:02:10.341Z,2.40
2023-12-09T04:04:37.148Z,2.40
2023-12-09T04:07:03.844Z,2.50
2023-12-09T04:09:30.619Z,2.50
2023-12-09T04:11:57.389Z,2.30
2023-12-09T04:14:24.177Z,2.20
2023-12-09T04:16:50.804Z,2.20
2023-12-09T04:19:17.663Z,2.40
2023-12-09T04:21:44.606Z,2.00
2023-12-09T04:24:11.285Z,1.90
2023-12-09T04:26:37.936Z,2.10
2023-12-09T04:29:04.815Z,2.30
2023-12-09T04:31:31.506Z,2.20
2023-12-09T04:33:58.221Z,2.30
2023-12-09T04:36:25.029Z,2.40
2023-12-09T04:38:51.753Z,2.40
2023-12-09T04:41:18.410Z,2.50
2023-12-09T04:43:46.483Z,2.50
2023-12-09T04:46:13.109Z,2.60
2023-12-09T04:48:40.215Z,2.60
2023-12-09T04:51:06.973Z,2.70
2023-12-09T04:53:33.663Z,2.60
2023-12-09T04:56:00.408Z,2.60
2023-12-09T04:58:27.076Z,2.60
2023-12-09T05:00:53.816Z,2.50
2023-12-09T05:03:20.564Z,2.40
2023-12-09T05:05:47.328Z,2.00
2023-12-09T05:08:13.953Z,2.10
2023-12-09T05:10:40.594Z,2.30
2023-12-09T05:13:07.374Z,2.20
2023-12-09T05:15:34.187Z,2.20
2023-12-09T05:18:00.996Z,2.10
2023-12-09T05:20:27.933Z,2.10
2023-12-09T05:22:54.608Z,2.20
2023-12-09T05:25:21.492Z,2.10
2023-12-09T05:27:48.223Z,2.10
2023-12-09T05:30:14.894Z,2.30
2023-12-09T05:32:41.656Z,2.50
2023-12-09T05:35:08.454Z,2.50
2023-12-09T05:37:35.181Z,2.50
2023-12-09T05:40:01.834Z,2.50
2023-12-09T05:42:28.834Z,2.30
2023-12-09T05:44:55.710Z,2.20
2023-12-09T05:47:22.504Z,1.80
2023-12-09T05:49:49.660Z,1.70
2023-12-09T05:52:16.539Z,1.70
2023-12-09T05:54:43.369Z,2.00
2023-12-09T05:57:10.167Z,2.20
2023-12-09T05:59:37.553Z,2.30
2023-12-09T06:02:04.275Z,2.30
2023-12-09T06:04:31.051Z,2.40
2023-12-09T06:06:57.899Z,2.50
2023-12-09T06:09:25.035Z,2.10
2023-12-09T06:11:51.729Z,2.00
2023-12-09T06:14:18.436Z,2.20
2023-12-09T06:16:45.061Z,2.30
2023-12-09T06:19:11.784Z,2.40
2023-12-09T06:21:38.869Z,2.30
2023-12-09T06:24:05.584Z,2.40
2023-12-09T06:26:32.282Z,2.20
2023-12-09T06:28:58.930Z,2.40
2023-12-09T06:31:25.742Z,2.40
2023-12-09T06:33:52.581Z,2.40
2023-12-09T06:36:19.257Z,2.30
2023-12-09T06:38:46.111Z,2.40
2023-12-09T06:41:12.794Z,2.50
2023-12-09T06:43:39.416Z,2.50
2023-12-09T06:46:06.038Z,2.60
2023-12-09T06:48:32.887Z,2.60
2023-12-09T06:50:59.686Z,2.50
2023-12-09T06:53:26.535Z,2.40
2023-12-09T06:55:53.431Z,2.50
2023-12-09T06:58:20.120Z,2.60
2023-12-09T07:00:46.941Z,2.60
2023-12-09T07:03:13.782Z,2.50
2023-12-09T07:05:40.546Z,2.40
2023-12-09T07:08:07.273Z,2.40
2023-12-09T07:10:34.031Z,2.50
2023-12-09T07:13:00.747Z,2.60
2023-12-09T07:15:27.555Z,2.40
2023-12-09T07:17:54.484Z,2.60
2023-12-09T07:20:21.191Z,2.40
2023-12-09T07:22:47.897Z,2.50
2023-12-09T07:25:14.582Z,2.60
2023-12-09T07:27:41.418Z,2.30
2023-12-09T07:30:08.074Z,2.10
2023-12-09T07:32:34.977Z,2.40
2023-12-09T07:35:01.792Z,2.50
2023-12-09T07:37:28.744Z,2.70
2023-12-09T07:39:55.578Z,2.80
2023-12-09T07:42:22.232Z,2.70
2023-12-09T07:44:49.088Z,2.60
2023-12-09T07:47:15.813Z,2.80
2023-12-09T07:49:42.569Z,2.70
2023-12-09T07:52:09.245Z,2.60
2023-12-09T07:54:35.980Z,2.70
2023-12-09T07:57:02.766Z,2.80
2023-12-09T07:59:29.437Z,2.60
2023-12-09T08:01:56.363Z,2.70
2023-12-09T08:04:23.066Z,2.60
2023-12-09T08:06:50.488Z,2.60
2023-12-09T08:09:17.417Z,2.50
2023-12-09T08:11:44.290Z,2.70
2023-12-09T08:14:11.314Z,2.90
2023-12-09T08:16:40.768Z,3.00
2023-12-09T08:19:07.456Z,3.30
2023-12-09T08:21:34.248Z,3.10
2023-12-09T08:24:01.100Z,3.20
2023-12-09T08:26:27.792Z,3.10
2023-12-09T08:28:54.427Z,3.00
2023-12-09T08:31:21.110Z,3.00
2023-12-09T08:33:47.850Z,3.30
2023-12-09T08:36:14.586Z,3.20
2023-12-09T08:38:41.271Z,3.30
2023-12-09T08:41:08.101Z,3.50
2023-12-09T08:43:34.798Z,3.60
2023-12-09T08:46:01.529Z,3.60
2023-12-09T08:48:28.262Z,3.70
2023-12-09T08:50:54.995Z,3.80
2023-12-09T08:53:21.663Z,3.80
2023-12-09T08:55:48.427Z,3.50
2023-12-09T08:58:15.029Z,3.70
2023-12-09T09:00:41.802Z,3.50
2023-12-09T09:03:08.599Z,3.10
2023-12-09T09:05:35.420Z,3.40
2023-12-09T09:08:02.229Z,3.50
2023-12-09T09:10:29.080Z,3.70
2023-12-09T09:12:55.760Z,3.30
2023-12-09T09:15:22.477Z,3.10
2023-12-09T09:17:49.190Z,2.80
2023-12-09T09:20:15.929Z,3.00
2023-12-09T09:22:46.224Z,3.40
2023-12-09T09:25:14.054Z,3.40
2023-12-09T09:27:40.772Z,3.40
2023-12-09T09:30:07.520Z,3.40
2023-12-09T09:32:34.227Z,3.30
2023-12-09T09:35:01.124Z,3.00
2023-12-09T09:37:27.846Z,3.00
2023-12-09T09:39:54.594Z,2.50
2023-12-09T09:42:21.293Z,2.60
2023-12-09T09:44:47.996Z,3.00
2023-12-09T09:47:14.757Z,3.40
2023-12-09T09:49:41.452Z,3.40
2023-12-09T09:52:08.156Z,3.90
2023-12-09T09:54:34.865Z,4.10
2023-12-09T09:57:01.612Z,4.00
2023-12-09T09:59:28.305Z,4.30
2023-12-09T10:01:54.957Z,4.40
2023-12-09T10:04:21.588Z,4.60
2023-12-09T10:06:48.433Z,4.60
2023-12-09T10:09:15.143Z,4.70
2023-12-09T10:11:41.770Z,4.50
2023-12-09T10:14:08.460Z,4.40
2023-12-09T10:16:35.091Z,4.50
2023-12-09T10:19:01.862Z,3.90
2023-12-09T10:21:28.665Z,3.60
2023-12-09T10:23:55.331Z,3.80
2023-12-09T10:26:21.972Z,3.90
2023-12-09T10:28:48.667Z,3.90
2023-12-09T10:31:15.320Z,4.00
2023-12-09T10:33:42.112Z,3.90
2023-12-09T10:36:08.853Z,4.00
2023-12-09T10:38:35.489Z,4.40
2023-12-09T10:41:02.099Z,4.40
2023-12-09T10:43:28.773Z,3.30
2023-12-09T10:45:57.799Z,4.20
2023-12-09T10:48:24.556Z,4.30
2023-12-09T10:50:51.539Z,4.50
2023-12-09T10:53:18.195Z,5.10
2023-12-09T10:55:44.828Z,5.50
2023-12-09T10:58:11.552Z,5.70
2023-12-09T11:00:38.324Z,5.50
2023-12-09T11:03:05.125Z,5.70
2023-12-09T11:05:31.842Z,5.70
2023-12-09T11:07:58.470Z,6.10
2023-12-09T11:10:25.109Z,6.30
2023-12-09T11:12:51.885Z,6.30
2023-12-09T11:15:18.580Z,6.00
2023-12-09T11:17:45.571Z,5.80
2023-12-09T11:20:12.729Z,5.40
2023-12-09T11:22:39.710Z,5.40
2023-12-09T11:25:06.395Z,5.20
2023-12-09T11:27:33.186Z,5.20
2023-12-09T11:30:01.936Z,5.50
2023-12-09T11:32:29.114Z,5.50
2023-12-09T11:34:56.342Z,5.50
2023-12-09T11:37:23.050Z,6.00
2023-12-09T11:39:49.677Z,6.40
2023-12-09T11:42:16.630Z,6.20
2023-12-09T11:44:43.353Z,5.70
2023-12-09T11:47:10.051Z,6.10
2023-12-09T11:49:36.870Z,6.30
2023-12-09T11:52:03.613Z,6.50
2023-12-09T11:54:30.289Z,6.90
2023-12-09T11:56:57.043Z,6.80
2023-12-09T11:59:23.778Z,6.90
2023-12-09T12:01:50.525Z,6.90
2023-12-09T12:04:17.277Z,6.20
2023-12-09T12:06:43.969Z,5.60
2023-12-09T12:09:10.630Z,5.60
2023-12-09T12:11:37.338Z,5.90
2023-12-09T12:14:04.119Z,6.10
2023-12-09T12:16:30.746Z,6.20
2023-12-09T12:18:57.625Z,6.40
2023-12-09T12:21:24.461Z,6.40
2023-12-09T12:23:51.127Z,6.70
2023-12-09T12:26:17.797Z,6.70
2023-12-09T12:28:44.559Z,6.60
2023-12-09T12:31:11.203Z,6.40
2023-12-09T12:33:38.028Z,6.10
2023-12-09T12:36:04.852Z,6.00
2023-12-09T12:38:31.594Z,6.20
2023-12-09T12:40:58.606Z,6.70
2023-12-09T12:43:25.378Z,7.00
2023-12-09T12:45:52.170Z,6.90
2023-12-09T12:48:19.090Z,6.90
2023-12-09T12:50:45.901Z,6.80
2023-12-09T12:53:12.541Z,6.70
2023-12-09T12:55:39.259Z,6.60
2023-12-09T12:58:06.070Z,5.60
2023-12-09T13:00:32.848Z,5.50
2023-12-09T13:02:59.679Z,5.40
2023-12-09T13:05:26.316Z,5.80
2023-12-09T13:07:52.983Z,5.90
2023-12-09T13:10:19.778Z,6.10
2023-12-09T13:12:46.511Z,6.30
2023-12-09T13:15:13.462Z,6.30
2023-12-09T13:17:40.208Z,6.00
2023-12-09T13:20:07.074Z,6.10
2023-12-09T13:22:33.816Z,6.00
2023-12-09T13:25:01.593Z,6.20
2023-12-09T13:27:29.190Z,5.70
2023-12-09T13:29:55.931Z,5.10
2023-12-09T13:32:22.610Z,4.70
2023-12-09T13:34:49.479Z,4.80
2023-12-09T13:37:16.335Z,5.30
2023-12-09T13:39:43.146Z,4.80
2023-12-09T13:42:09.889Z,4.90
2023-12-09T13:44:39.013Z,4.80
2023-12-09T13:47:07.405Z,4.80
2023-12-09T13:49:34.088Z,4.90
2023-12-09T13:52:00.801Z,4.80
2023-12-09T13:54:27.650Z,4.80
2023-12-09T13:56:54.301Z,4.80
2023-12-09T13:59:20.958Z,5.00
2023-12-09T14:01:47.643Z,5.20
2023-12-09T14:04:14.283Z,5.20
2023-12-09T14:06:40.963Z,4.40
2023-12-09T14:09:07.672Z,4.30
2023-12-09T14:11:34.317Z,4.00
2023-12-09T14:14:00.959Z,4.20
2023-12-09T14:16:27.683Z,4.30
2023-12-09T14:18:54.504Z,3.90
2023-12-09T14:21:21.168Z,3.80
2023-12-09T14:23:48.303Z,4.00
2023-12-09T14:26:14.952Z,4.00
2023-12-09T14:28:41.577Z,4.00
2023-12-09T14:31:08.275Z,4.10
2023-12-09T14:33:35.047Z,4.20
2023-12-09T14:36:02.288Z,4.20
2023-12-09T14:38:29.033Z,3.80
2023-12-09T14:40:55.661Z,3.70
2023-12-09T14:43:22.309Z,3.90
2023-12-09T14:45:49.052Z,3.90
2023-12-09T14:48:15.960Z,4.20
2023-12-09T14:50:42.797Z,4.10
2023-12-09T14:53:09.504Z,3.80
2023-12-09T14:55:36.109Z,3.70
2023-12-09T14:58:02.754Z,3.80
2023-12-09T15:00:29.555Z,3.90
2023-12-09T15:02:56.229Z,4.00
2023-12-09T15:05:22.960Z,3.90
2023-12-09T15:07:49.692Z,3.70
2023-12-09T15:10:16.634Z,3.90
2023-12-09T15:12:43.302Z,4.00
2023-12-09T15:15:10.049Z,4.00
2023-12-09T15:17:38.494Z,4.10
2023-12-09T15:20:05.620Z,3.80
2023-12-09T15:22:32.404Z,4.00
2023-12-09T15:24:59.238Z,4.10
2023-12-09T15:27:26.039Z,4.30
2023-12-09T15:29:52.983Z,4.30
2023-12-09T15:32:19.720Z,4.10
2023-12-09T15:34:46.435Z,3.80
2023-12-09T15:37:13.262Z,3.90
2023-12-09T15:39:39.939Z,4.00
2023-12-09T15:42:06.686Z,4.10
2023-12-09T15:44:33.557Z,4.20
2023-12-09T15:47:00.368Z,4.10
2023-12-09T15:49:27.330Z,3.90
2023-12-09T15:51:54.153Z,3.80
2023-12-09T15:54:20.871Z,3.90
2023-12-09T15:56:47.520Z,3.70
2023-12-09T15:59:14.406Z,3.70
2023-12-09T16:01:41.320Z,3.50
2023-12-09T16:04:08.052Z,3.50
2023-12-09T16:06:34.840Z,3.50
2023-12-09T16:09:01.504Z,3.40
2023-12-09T16:11:28.162Z,3.40
2023-12-09T16:13:54.864Z,3.40
2023-12-09T16:16:21.505Z,3.30
2023-12-09T16:18:48.379Z,3.60
2023-12-09T16:21:15.143Z,3.70
2023-12-09T16:23:42.165Z,3.90
2023-12-09T16:26:08.826Z,3.80
2023-12-09T16:28:35.781Z,3.80
2023-12-09T16:31:02.844Z,3.50
2023-12-09T16:33:29.856Z,3.20
2023-12-09T16:35:56.702Z,3.20
2023-12-09T16:38:23.350Z,3.10
2023-12-09T16:40:50.133Z,3.10
2023-12-09T16:43:16.868Z,3.10
2023-12-09T16:45:43.632Z,3.00
2023-12-09T16:48:10.389Z,2.90
2023-12-09T16:50:37.318Z,3.10
2023-12-09T16:53:04.162Z,3.20
2023-12-09T16:55:30.879Z,3.20
2023-12-09T16:57:57.617Z,3.40
2023-12-09T17:00:24.482Z,3.30
2023-12-09T17:02:51.248Z,3.10
2023-12-09T17:05:18.154Z,2.60
2023-12-09T17:07:45.075Z,2.60
2023-12-09T17:10:11.865Z,2.60
2023-12-09T17:12:38.601Z,2.80
2023-12-09T17:15:05.407Z,2.80
2023-12-09T17:17:32.904Z,2.90
2023-12-09T17:19:59.693Z,2.60
2023-12-09T17:22:26.664Z,2.70
2023-12-09T17:24:53.757Z,2.50
2023-12-09T17:27:20.706Z,2.70
2023-12-09T17:29:47.447Z,2.60
2023-12-09T17:32:14.228Z,2.80
2023-12-09T17:34:41.001Z,3.10
2023-12-09T17:37:07.826Z,3.00
2023-12-09T17:39:34.518Z,3.20
2023-12-09T17:42:01.431Z,3.10
2023-12-09T17:44:28.185Z,3.10
2023-12-09T17:46:54.858Z,3.40
2023-12-09T17:49:21.876Z,3.40
2023-12-09T17:51:48.666Z,3.30
2023-12-09T17:54:15.370Z,2.80
2023-12-09T17:56:42.078Z,2.60
2023-12-09T17:59:08.797Z,2.70
2023-12-09T18:01:35.554Z,2.60
2023-12-09T18:04:02.404Z,2.70
2023-12-09T18:06:29.134Z,2.90
2023-12-09T18:08:55.837Z,2.90
2023-12-09T18:11:22.613Z,2.60
2023-12-09T18:13:49.491Z,2.20
2023-12-09T18:16:16.161Z,2.40
2023-12-09T18:18:42.952Z,2.60
2023-12-09T18:21:09.654Z,2.30
2023-12-09T18:23:36.348Z,2.20
2023-12-09T18:26:03.380Z,2.40
2023-12-09T18:28:30.122Z,2.10
2023-12-09T18:30:57.033Z,2.10
2023-12-09T18:33:23.927Z,2.30
2023-12-09T18:35:50.691Z,2.00
2023-12-09T18:38:17.346Z,1.80
2023-12-09T18:40:44.133Z,1.50
2023-12-09T18:43:10.877Z,1.60
2023-12-09T18:45:37.717Z,1.70
2023-12-09T18:48:04.606Z,2.00
2023-12-09T18:50:31.508Z,2.20
2023-12-09T18:52:58.247Z,2.20
2023-12-09T18:55:25.136Z,2.60
2023-12-09T18:57:51.915Z,2.70
2023-12-09T19:00:18.622Z,2.70
2023-12-09T19:02:45.558Z,2.60
2023-12-09T19:05:12.331Z,2.50
2023-12-09T19:07:38.999Z,2.60
2023-12-09T19:10:06.523Z,2.60
2023-12-09T19:12:33.673Z,2.70
2023-12-09T19:15:00.397Z,2.80
2023-12-09T19:17:27.357Z,2.70
2023-12-09T19:19:54.252Z,2.90
2023-12-09T19:22:20.952Z,3.10
2023-12-09T19:24:47.812Z,3.00
2023-12-09T19:27:14.716Z,2.80
2023-12-09T19:29:41.396Z,2.40
2023-12-09T19:32:08.338Z,2.30
2023-12-09T19:34:35.168Z,2.20
2023-12-09T19:37:02.100Z,2.10
2023-12-09T19:39:28.827Z,2.40
2023-12-09T19:41:55.486Z,2.80
2023-12-09T19:44:22.168Z,2.80
2023-12-09T19:46:49.069Z,2.90
2023-12-09T19:49:15.938Z,2.70
2023-12-09T19:51:42.773Z,2.70
2023-12-09T19:54:09.545Z,3.00
2023-12-09T19:56:36.375Z,3.10
2023-12-09T19:59:03.226Z,3.10
2023-12-09T20:01:30.062Z,3.20
2023-12-09T20:03:56.813Z,3.00
2023-12-09T20:06:23.646Z,3.00
2023-12-09T20:08:50.425Z,3.00
2023-12-09T20:11:17.289Z,3.00
2023-12-09T20:13:43.955Z,3.10
2023-12-09T20:16:10.676Z,2.80
2023-12-09T20:18:37.531Z,2.80
2023-12-09T20:21:04.262Z,2.70
2023-12-09T20:23:31.219Z,2.70
2023-12-09T20:25:57.896Z,2.70
2023-12-09T20:28:24.737Z,2.70
2023-12-09T20:30:51.559Z,2.90
2023-12-09T20:33:18.400Z,3.10
2023-12-09T20:35:45.233Z,3.20
2023-12-09T20:38:11.938Z,3.40
2023-12-09T20:40:38.586Z,3.20
2023-12-09T20:43:05.404Z,3.00
2023-12-09T20:45:32.165Z,2.40
2023-12-09T20:47:58.920Z,2.60
2023-12-09T20:50:25.862Z,3.00
2023-12-09T20:52:52.598Z,2.90
2023-12-09T20:55:19.425Z,3.00
2023-12-09T20:57:46.247Z,3.00
2023-12-09T21:00:13.289Z,3.30
2023-12-09T21:02:40.096Z,3.50
2023-12-09T21:05:06.943Z,3.40
2023-12-09T21:07:33.733Z,3.30
2023-12-09T21:10:00.570Z,3.00
2023-12-09T21:12:27.878Z,3.10
2023-12-09T21:14:54.793Z,3.30
2023-12-09T21:17:21.675Z,3.00
2023-12-09T21:19:48.382Z,2.80
2023-12-09T21:22:15.081Z,2.80
2023-12-09T21:24:42.027Z,2.70
2023-12-09T21:27:08.877Z,2.80
2023-12-09T21:29:35.604Z,2.60
2023-12-09T21:32:02.293Z,2.60
2023-12-09T21:34:28.976Z,2.80
2023-12-09T21:36:55.705Z,2.90
2023-12-09T21:39:22.387Z,2.90
2023-12-09T21:41:49.053Z,3.10
2023-12-09T21:44:15.952Z,3.10
2023-12-09T21:46:42.636Z,3.00
2023-12-09T21:49:09.567Z,2.70
2023-12-09T21:51:36.335Z,2.20
2023-12-09T21:54:03.461Z,1.80
2023-12-09T21:56:30.093Z,2.00
2023-12-09T21:58:56.759Z,1.80
2023-12-09T22:01:23.534Z,1.90
2023-12-09T22:03:50.406Z,1.80
2023-12-09T22:06:17.551Z,1.90
2023-12-09T22:08:44.302Z,1.70
2023-12-09T22:11:10.931Z,1.90
2023-12-09T22:13:37.730Z,2.10
2023-12-09T22:16:04.402Z,1.90
2023-12-09T22:18:31.282Z,2.10
2023-12-09T22:20:58.264Z,2.30
2023-12-09T22:23:25.309Z,2.40
2023-12-09T22:25:52.025Z,2.30
2023-12-09T22:28:18.873Z,2.30
2023-12-09T22:30:45.597Z,2.30
2023-12-09T22:33:12.566Z,2.20
2023-12-09T22:35:39.533Z,2.10
2023-12-09T22:38:06.225Z,2.30
2023-12-09T22:40:32.987Z,2.60
2023-12-09T22:42:59.740Z,2.30
2023-12-09T22:45:26.631Z,2.00
2023-12-09T22:47:53.681Z,2.40
2023-12-09T22:50:20.444Z,2.70
2023-12-09T22:52:47.425Z,2.70
2023-12-09T22:55:14.133Z,2.80
2023-12-09T22:57:40.832Z,3.10
2023-12-09T23:00:07.730Z,3.30
2023-12-09T23:02:34.652Z,3.20
2023-12-09T23:05:01.348Z,3.30
2023-12-09T23:07:27.993Z,3.20
2023-12-09T23:09:54.816Z,3.10
2023-12-09T23:12:21.597Z,3.00
2023-12-09T23:14:48.269Z,3.10
2023-12-09T23:17:15.080Z,3.00
2023-12-09T23:19:41.914Z,2.90
2023-12-09T23:22:08.606Z,2.70
2023-12-09T23:24:35.542Z,2.90
2023-12-09T23:27:02.431Z,2.80
2023-12-09T23:29:29.178Z,2.80
2023-12-09T23:31:55.831Z,2.30
2023-12-09T23:34:23.510Z,2.30
2023-12-09T23:36:50.616Z,2.50
2023-12-09T23:39:17.389Z,2.50
2023-12-09T23:41:44.098Z,2.40
2023-12-09T23:44:10.800Z,2.40
2023-12-09T23:46:37.442Z,2.30
2023-12-09T23:49:04.381Z,2.30
2023-12-09T23:51:31.263Z,2.60
2023-12-09T23:53:58.265Z,3.00
2023-12-09T23:56:24.958Z,3.10
2023-12-09T23:58:51.597Z,3.20
